Time;durP1;ratioP1;P1;durP2;ratioP2;P2;SDS_P1;SDS_P2;PMS_P1;PMS_P2;Temp;Humidity;BMP_temperature;BMP_pressure;BME280_temperature;BME280_humidity;BME280_pressure;Samples;Min_cycle;Max_cycle;Signal;HPM_P1;HPM_P2
2022/12/30 00:01:34;;;;;;;24.77;17.52;;;;;;;6.63;69.46;99863.18;1965302;90;28678;-61
2022/12/30 00:04:36;;;;;;;23.65;13.93;;;;;;;6.62;69.47;99866.77;1966350;90;32168;-61
2022/12/30 00:07:39;;;;;;;22.82;14.47;;;;;;;6.62;69.49;99868.09;1966009;90;33850;-61
2022/12/30 00:10:41;;;;;;;22.82;14.38;;;;;;;6.62;69.57;99876.09;2000609;88;31742;-61
2022/12/30 00:33:59;;;;;;;18.98;12.37;;;;;;;6.64;69.55;99856.05;1975863;89;30055;-62
2022/12/30 00:37:03;;;;;;;24.98;13.93;;;;;;;6.64;69.49;99858.27;1976232;89;31041;-63
2022/12/30 00:40:07;;;;;;;19.87;13.15;;;;;;;6.61;69.47;99857.05;1977230;90;33009;-63
2022/12/30 00:43:08;;;;;;;21.07;13.22;;;;;;;6.60;69.47;99863.30;2007369;88;30452;-62
2022/12/30 00:46:11;;;;;;;22.58;13.43;;;;;;;6.58;69.41;99874.47;2007331;88;28368;-63
2022/12/30 00:56:09;;;;;;;21.25;13.40;;;;;;;6.50;69.37;99874.77;2007056;88;34146;-61
2022/12/30 00:59:12;;;;;;;20.10;13.48;;;;;;;6.48;69.41;99884.61;2007235;88;29707;-61
2022/12/30 01:02:14;;;;;;;22.22;13.48;;;;;;;6.45;69.42;99878.10;2007076;88;27723;-62
2022/12/30 01:05:16;;;;;;;22.67;15.43;;;;;;;6.45;69.42;99883.88;2007032;88;29668;-62
2022/12/30 01:08:18;;;;;;;20.97;13.48;;;;;;;6.44;69.38;99899.43;2007276;88;32278;-63
2022/12/30 01:11:20;;;;;;;19.60;13.50;;;;;;;6.40;69.45;99894.70;2006896;88;33816;-62
2022/12/30 01:14:22;;;;;;;23.27;14.63;;;;;;;6.40;69.50;99909.33;2006295;88;31042;-61
2022/12/30 01:17:28;;;;;;;20.82;13.25;;;;;;;6.41;69.57;99904.87;2004019;88;27680;-63
2022/12/30 01:20:30;;;;;;;20.40;13.22;;;;;;;6.44;69.63;99909.63;2003970;88;28720;-63
2022/12/30 01:23:33;;;;;;;20.52;13.78;;;;;;;6.46;69.70;99914.88;2003603;88;31985;-63
2022/12/30 01:26:35;;;;;;;24.18;13.45;;;;;;;6.50;69.70;99908.52;2003880;88;33019;-63
2022/12/30 01:29:41;;;;;;;21.70;13.58;;;;;;;6.53;69.69;99903.93;2002966;88;30838;-63
2022/12/30 01:32:43;;;;;;;21.10;13.83;;;;;;;6.54;69.64;99910.11;2002508;88;28303;-63
2022/12/30 01:35:45;;;;;;;24.43;14.45;;;;;;;6.56;69.59;99914.05;2001907;88;29544;-63
2022/12/30 01:38:46;;;;;;;22.62;13.28;;;;;;;6.55;69.57;99919.83;2002256;88;31475;-63
2022/12/30 01:41:49;;;;;;;25.00;14.98;;;;;;;6.56;69.57;99915.39;2002280;88;34114;-62
2022/12/30 01:44:59;;;;;;;21.80;13.72;;;;;;;6.56;69.56;99910.91;2001920;88;30545;-62
2022/12/30 01:48:08;;;;;;;22.70;13.90;;;;;;;6.56;69.57;99911.39;2002280;88;27699;-62
2022/12/30 01:51:18;;;;;;;23.10;14.10;;;;;;;6.55;69.56;99921.16;2002150;88;28664;-64
2022/12/30 01:54:23;;;;;;;20.97;13.78;;;;;;;6.54;69.59;99934.05;2003297;88;31411;-61
2022/12/30 01:57:25;;;;;;;22.48;14.13;;;;;;;6.54;69.61;99932.73;2002414;88;33136;-62
2022/12/30 02:00:27;;;;;;;22.10;14.18;;;;;;;6.56;69.73;99942.85;1984403;88;29882;-62
2022/12/30 02:03:33;;;;;;;22.80;14.75;;;;;;;6.58;69.73;99941.48;2003710;88;27698;-67
2022/12/30 02:06:49;;;;;;;22.50;14.98;;;;;;;6.61;69.71;99936.90;2004125;88;28707;-62
2022/12/30 02:09:52;;;;;;;23.85;14.90;;;;;;;6.64;69.69;99934.13;1996513;88;30853;-66
2022/12/30 02:12:54;;;;;;;21.70;14.60;;;;;;;6.66;69.77;99940.25;2003489;88;33986;-65
2022/12/30 02:16:10;;;;;;;22.95;15.53;;;;;;;6.69;69.74;99940.59;1992562;88;30055;-64
2022/12/30 02:19:35;;;;;;;21.87;14.63;;;;;;;6.71;69.73;99947.17;1986640;89;27691;-67
2022/12/30 02:23:12;;;;;;;21.52;14.33;;;;;;;6.73;69.76;99953.30;1986689;89;29337;-60
2022/12/30 02:27:04;;;;;;;23.57;13.80;;;;;;;6.76;69.77;99955.84;1951209;91;32428;-60
2022/12/30 02:30:22;;;;;;;21.93;14.07;;;;;;;6.77;69.79;99957.14;1950934;91;34208;-60
2022/12/30 02:33:33;;;;;;;20.77;13.20;;;;;;;6.77;69.75;99952.27;1951338;91;29849;-60
2022/12/30 02:36:45;;;;;;;20.12;13.38;;;;;;;6.79;69.76;99958.40;1951761;91;27912;-59
2022/12/30 02:39:53;;;;;;;20.17;13.68;;;;;;;6.80;69.79;99972.97;1951512;91;28554;-59
2022/12/30 02:46:34;;;;;;;19.00;12.55;;;;;;;6.81;69.82;99968.53;1951481;91;33671;-62
2022/12/30 02:49:38;;;;;;;19.50;13.40;;;;;;;6.79;69.81;99980.55;1951345;91;30898;-62
2022/12/30 02:52:40;;;;;;;23.70;14.07;;;;;;;6.78;69.73;99964.20;1931946;91;28392;-62
2022/12/30 02:55:43;;;;;;;21.35;12.60;;;;;;;6.77;69.87;99970.90;1951700;91;29112;-62
2022/12/30 03:03:57;;;;;;;18.87;12.88;;;;;;;6.78;69.87;99956.66;1951628;91;31983;-61
2022/12/30 03:06:00;;;;;;;22.45;13.05;;;;;;;6.75;69.94;99955.45;1986496;89;30817;-59
2022/12/30 03:09:42;;;;;;;18.30;12.55;;;;;;;6.74;69.88;99967.91;1982541;89;27675;-61
2022/12/30 03:12:59;;;;;;;17.10;11.97;;;;;;;6.74;70.01;99972.34;1969067;90;29102;-59
2022/12/30 03:16:27;;;;;;;20.32;12.47;;;;;;;6.74;69.99;99990.98;1989523;88;32230;-61
2022/12/30 03:19:37;;;;;;;20.82;13.00;;;;;;;6.74;70.05;99991.86;1957694;90;33214;-60
2022/12/30 03:29:52;;;;;;;21.30;13.75;;;;;;;6.74;70.08;99993.64;1969955;89;30230;-62
2022/12/30 03:32:54;;;;;;;21.10;13.05;;;;;;;6.74;70.12;100003.84;1949223;91;30475;-62
2022/12/30 03:36:10;;;;;;;20.88;13.48;;;;;;;6.74;70.18;100002.95;1949321;91;33782;-62
2022/12/30 03:39:25;;;;;;;22.07;12.70;;;;;;;6.75;70.26;100005.58;1949625;89;30418;-63
2022/12/30 03:42:28;;;;;;;20.95;12.37;;;;;;;6.75;70.22;100006.91;1949642;91;27706;-63
2022/12/30 03:45:30;;;;;;;20.15;12.33;;;;;;;6.76;70.27;100017.08;1933755;91;29238;-63
2022/12/30 03:48:31;;;;;;;20.43;13.18;;;;;;;6.76;70.26;100019.30;1953105;89;31487;-64
2022/12/30 03:51:34;;;;;;;19.80;12.47;;;;;;;6.78;70.30;100025.88;1949073;91;35090;-62
2022/12/30 03:54:35;;;;;;;19.32;13.32;;;;;;;6.77;70.33;100021.03;1949194;91;31849;-63
2022/12/30 03:57:37;;;;;;;18.17;13.40;;;;;;;6.79;70.31;100016.97;1949175;91;27777;-62
2022/12/30 04:00:39;;;;;;;16.57;12.43;;;;;;;6.80;70.34;100022.22;1949576;89;29860;-61
2022/12/30 04:03:41;;;;;;;19.05;12.85;;;;;;;6.81;70.37;100016.45;1949492;91;31982;-61
2022/12/30 04:06:43;;;;;;;20.27;12.95;;;;;;;6.82;70.41;100015.52;1949476;90;33771;-62
2022/12/30 04:09:44;;;;;;;22.13;12.70;;;;;;;6.83;70.39;100023.44;1949707;89;29746;-62
2022/12/30 04:12:46;;;;;;;19.75;12.13;;;;;;;6.85;70.46;100026.06;1973612;89;27815;-61
2022/12/30 04:15:50;;;;;;;19.10;12.58;;;;;;;6.87;70.43;100028.66;1981796;89;28892;-62
2022/12/30 04:18:52;;;;;;;21.17;12.82;;;;;;;6.87;70.44;100037.50;1981303;89;31997;-62
2022/12/30 04:21:53;;;;;;;19.70;11.90;;;;;;;6.88;70.45;100037.90;1981631;89;34319;-62
2022/12/30 04:24:55;;;;;;;15.60;11.88;;;;;;;6.90;70.44;100047.18;1988560;88;30799;-62
2022/12/30 04:27:57;;;;;;;16.97;12.15;;;;;;;6.90;70.43;100048.03;1993942;89;27652;-62
2022/12/30 04:30:59;;;;;;;22.00;12.68;;;;;;;6.91;70.44;100050.25;1969020;89;29023;-61
2022/12/30 04:34:02;;;;;;;19.92;12.35;;;;;;;6.90;70.41;100052.03;1960961;90;31124;-62
2022/12/30 04:37:04;;;;;;;18.37;11.50;;;;;;;6.89;70.47;100054.77;1961114;90;34166;-61
2022/12/30 04:40:08;;;;;;;21.05;11.88;;;;;;;6.87;70.48;100057.95;1972215;89;29714;-61
2022/12/30 04:43:10;;;;;;;21.27;11.95;;;;;;;6.84;70.49;100066.45;1961093;90;27647;-62
2022/12/30 04:46:12;;;;;;;21.40;11.90;;;;;;;6.83;70.49;100074.03;1960803;90;29359;-61
2022/12/30 04:49:15;;;;;;;17.60;11.60;;;;;;;6.82;70.51;100088.27;1960949;89;32268;-61
2022/12/30 04:52:18;;;;;;;18.92;11.60;;;;;;;6.81;70.54;100086.53;1961251;90;34104;-60
2022/12/30 04:55:20;;;;;;;16.82;10.88;;;;;;;6.81;70.59;100089.67;1961018;90;29089;-61
2022/12/30 04:58:23;;;;;;;18.27;10.38;;;;;;;6.78;70.62;100099.09;1960961;90;27749;-62
2022/12/30 05:01:26;;;;;;;18.57;10.70;;;;;;;6.77;70.63;100098.24;1961534;89;29051;-60
2022/12/30 05:04:27;;;;;;;17.57;10.58;;;;;;;6.78;70.65;100104.42;1984577;89;31836;-61
2022/12/30 05:07:29;;;;;;;16.85;10.82;;;;;;;6.77;70.69;100112.00;1994199;88;34120;-61
2022/12/30 05:10:34;;;;;;;18.02;10.68;;;;;;;6.77;70.73;100114.66;1993828;88;29636;-62
2022/12/30 05:13:36;;;;;;;15.83;10.28;;;;;;;6.76;70.75;100122.24;1994306;88;27715;-62
2022/12/30 05:16:37;;;;;;;16.77;10.30;;;;;;;6.77;70.80;100132.86;1994071;89;29833;-61
2022/12/30 05:19:39;;;;;;;16.70;8.60;;;;;;;6.77;70.84;100137.30;1994222;88;31346;-60
2022/12/30 05:22:41;;;;;;;13.70;10.10;;;;;;;6.77;70.86;100141.29;1994153;89;33088;-61
2022/12/30 05:29:03;;;;;;;17.15;10.18;;;;;;;6.76;70.94;100156.41;1992123;89;27707;-63
2022/12/30 05:32:05;;;;;;;16.15;10.85;;;;;;;6.77;71.01;100161.26;1961126;90;29069;-62
2022/12/30 05:35:08;;;;;;;20.57;11.28;;;;;;;6.78;71.06;100169.20;1961197;90;32210;-60
2022/12/30 05:38:10;;;;;;;18.52;12.30;;;;;;;6.79;71.10;100169.58;1961115;90;32953;-58
2022/12/30 05:41:12;;;;;;;15.48;10.43;;;;;;;6.79;71.09;100170.06;1961250;89;30762;-64
2022/12/30 05:44:13;;;;;;;15.72;9.70;;;;;;;6.80;71.12;100179.79;1961344;90;27626;-64
2022/12/30 05:47:17;;;;;;;13.50;7.65;;;;;;;6.81;71.16;100184.19;1961556;90;28689;-62
2022/12/30 05:50:19;;;;;;;15.80;9.15;;;;;;;6.84;71.22;100190.74;1961320;90;32272;-59
2022/12/30 05:53:21;;;;;;;18.00;9.35;;;;;;;6.88;71.24;100183.03;1960962;90;33497;-59
2022/12/30 05:56:25;;;;;;;15.60;9.00;;;;;;;6.94;71.22;100188.14;1961054;89;30909;-59
2022/12/30 05:59:27;;;;;;;16.87;9.90;;;;;;;6.98;71.25;100187.56;1961180;90;27744;-59
2022/12/30 06:02:33;;;;;;;12.78;9.13;;;;;;;7.03;71.20;100197.59;1960882;90;29550;-59
2022/12/30 06:05:35;;;;;;;19.10;9.83;;;;;;;7.06;71.17;100202.81;1961214;90;32039;-60
2022/12/30 06:08:38;;;;;;;13.38;8.43;;;;;;;7.09;71.13;100210.70;1961181;90;33311;-60
2022/12/30 06:11:40;;;;;;;12.43;8.33;;;;;;;7.09;71.04;100209.37;1961267;89;29687;-60
2022/12/30 06:14:42;;;;;;;15.68;8.75;;;;;;;7.08;70.93;100210.73;1961044;90;27659;-60
2022/12/30 06:17:44;;;;;;;13.13;8.63;;;;;;;7.01;70.81;100208.77;1960971;90;29920;-61
2022/12/30 06:20:47;;;;;;;16.12;8.25;;;;;;;6.95;70.76;100215.19;1961115;90;31465;-61
2022/12/30 06:23:49;;;;;;;12.33;8.03;;;;;;;6.88;70.71;100218.98;1960811;90;34027;-58
2022/12/30 06:26:51;;;;;;;12.25;8.10;;;;;;;6.80;70.67;100217.92;1971012;90;31024;-59
2022/12/30 06:29:53;;;;;;;14.35;9.35;;;;;;;6.73;70.63;100214.20;1994946;88;27656;-63
2022/12/30 06:32:55;;;;;;;12.58;7.97;;;;;;;6.62;70.55;100221.25;2005026;88;29833;-58
2022/12/30 06:35:57;;;;;;;13.98;8.78;;;;;;;6.52;70.49;100226.87;2005134;88;31853;-59
2022/12/30 06:38:59;;;;;;;14.60;8.98;;;;;;;6.39;70.42;100227.74;2004681;88;34169;-59
2022/12/30 06:42:01;;;;;;;12.03;8.18;;;;;;;6.29;70.43;100231.64;2004872;88;29657;-59
2022/12/30 06:45:04;;;;;;;15.88;9.68;;;;;;;6.19;70.57;100239.53;2004714;88;27643;-60
2022/12/30 06:48:06;;;;;;;14.10;8.73;;;;;;;6.12;70.76;100241.52;2004732;88;29523;-60
2022/12/30 06:51:09;;;;;;;15.85;9.50;;;;;;;6.07;70.94;100242.97;2004810;88;32238;-59
2022/12/30 06:54:11;;;;;;;18.73;10.75;;;;;;;6.05;71.03;100249.27;2004619;88;35062;-59
2022/12/30 06:57:13;;;;;;;18.12;10.23;;;;;;;6.04;71.25;100251.52;2005471;88;29648;-59
2022/12/30 07:00:16;;;;;;;18.00;8.55;;;;;;;6.03;71.29;100257.30;2004774;88;27643;-59
2022/12/30 07:03:18;;;;;;;14.75;8.80;;;;;;;6.03;71.44;100263.06;2004652;88;29598;-59
2022/12/30 07:06:20;;;;;;;17.50;8.33;;;;;;;6.03;71.50;100277.69;2005010;88;32060;-59
2022/12/30 07:09:22;;;;;;;15.25;9.45;;;;;;;6.01;71.41;100281.74;2004768;88;33518;-59
2022/12/30 07:12:24;;;;;;;15.35;9.48;;;;;;;5.97;71.31;100284.48;2004814;88;30861;-59
2022/12/30 07:15:26;;;;;;;17.00;9.18;;;;;;;5.90;71.24;100289.13;2005056;88;27672;-60
2022/12/30 07:18:28;;;;;;;17.07;9.13;;;;;;;5.82;71.10;100289.83;2004992;88;28629;-59
2022/12/30 07:21:30;;;;;;;16.40;9.40;;;;;;;5.74;71.06;100292.72;2005456;88;31380;-61
2022/12/30 07:24:32;;;;;;;18.67;10.10;;;;;;;5.65;71.16;100296.52;2005056;88;33131;-60
2022/12/30 07:27:35;;;;;;;24.20;11.60;;;;;;;5.57;71.12;100295.42;2004852;88;30526;-59
2022/12/30 07:30:37;;;;;;;23.15;10.53;;;;;;;5.50;71.26;100296.50;2004897;88;27756;-59
2022/12/30 07:33:38;;;;;;;30.15;15.43;;;;;;;5.45;71.37;100300.63;2003800;88;30029;-59
2022/12/30 07:36:40;;;;;;;35.60;16.65;;;;;;;5.40;71.49;100309.17;2004783;88;32273;-59
2022/12/30 07:39:42;;;;;;;46.68;19.90;;;;;;;5.36;71.66;100314.17;2005217;88;34090;-59
2022/12/30 07:42:44;;;;;;;43.00;20.30;;;;;;;5.30;71.76;100316.99;2005169;88;30023;-60
2022/12/30 07:45:46;;;;;;;45.85;20.60;;;;;;;5.28;72.05;100322.80;2005206;88;27559;-59
2022/12/30 07:48:48;;;;;;;46.55;19.20;;;;;;;5.24;72.01;100327.33;2004833;88;30040;-60
2022/12/30 07:51:52;;;;;;;38.38;18.77;;;;;;;5.21;71.99;100336.70;2004760;88;31036;-59
2022/12/30 07:54:54;;;;;;;35.33;17.48;;;;;;;5.16;72.20;100339.49;2004882;88;33120;-59
2022/12/30 07:57:57;;;;;;;36.60;17.75;;;;;;;5.14;72.36;100347.06;2004557;88;30484;-59
2022/12/30 08:01:05;;;;;;;28.23;15.93;;;;;;;5.11;72.47;100350.68;2004478;88;27715;-59
2022/12/30 08:04:07;;;;;;;37.17;17.07;;;;;;;5.09;72.51;100359.14;2005038;88;29613;-58
2022/12/30 08:07:09;;;;;;;31.27;14.90;;;;;;;5.08;72.56;100368.02;2005015;88;32226;-59
2022/12/30 08:10:11;;;;;;;26.65;15.30;;;;;;;5.10;72.87;100362.69;2005072;88;33347;-61
2022/12/30 08:13:13;;;;;;;32.15;15.93;;;;;;;5.13;73.01;100370.10;2005117;88;30069;-60
2022/12/30 08:16:17;;;;;;;31.85;16.35;;;;;;;5.19;73.21;100366.41;2005266;88;28036;-61
2022/12/30 08:19:18;;;;;;;37.30;16.12;;;;;;;5.27;73.38;100372.84;2005134;88;28659;-61
2022/12/30 08:22:21;;;;;;;35.15;17.70;;;;;;;5.38;73.59;100376.55;2004821;88;32241;-60
2022/12/30 08:25:23;;;;;;;36.00;18.80;;;;;;;5.51;73.66;100379.75;2003741;88;33669;-60
2022/12/30 08:28:27;;;;;;;31.42;17.73;;;;;;;5.63;73.81;100387.38;1981644;89;30233;-65
2022/12/30 08:31:30;;;;;;;33.40;18.42;;;;;;;5.76;73.92;100400.73;1966891;90;27792;-62
2022/12/30 08:34:32;;;;;;;30.50;17.65;;;;;;;5.90;74.02;100402.13;1966882;90;30019;-60
2022/12/30 08:37:34;;;;;;;28.50;15.40;;;;;;;6.04;74.02;100405.28;1966817;90;32314;-60
2022/12/30 08:40:37;;;;;;;29.87;16.48;;;;;;;6.19;74.03;100399.98;1967121;90;33784;-61
2022/12/30 08:43:40;;;;;;;26.85;15.35;;;;;;;6.34;74.04;100404.42;1966990;90;30506;-60
2022/12/30 08:46:42;;;;;;;26.82;13.30;;;;;;;6.54;74.11;100423.32;1966980;90;27648;-61
2022/12/30 08:49:44;;;;;;;20.43;11.55;;;;;;;6.78;74.12;100429.25;1967263;90;28156;-61
2022/12/30 08:52:46;;;;;;;24.57;12.20;;;;;;;7.03;74.09;100431.99;1966858;90;32279;-62
2022/12/30 08:55:48;;;;;;;21.73;11.33;;;;;;;7.30;73.96;100439.97;1966791;90;33871;-62
2022/12/30 08:58:51;;;;;;;161.90;84.70;;;;;;;7.57;73.85;100439.97;1973030;89;31001;-61
2022/12/30 09:01:53;;;;;;;74.90;39.80;;;;;;;7.85;73.65;100449.20;1967321;90;27996;-61
2022/12/30 09:04:57;;;;;;;30.37;15.90;;;;;;;8.10;73.14;100450.95;1966864;90;29544;-62
2022/12/30 09:07:59;;;;;;;31.65;14.05;;;;;;;8.36;73.13;100448.64;1967006;89;32280;-63
2022/12/30 09:11:08;;;;;;;22.25;8.40;;;;;;;8.60;72.85;100446.45;1966827;90;34196;-61
2022/12/30 09:14:12;;;;;;;13.08;5.20;;;;;;;8.83;72.50;100448.69;1967140;90;29649;-61
2022/12/30 09:17:14;;;;;;;8.30;3.42;;;;;;;8.99;71.89;100442.24;1967157;90;27701;-62
2022/12/30 09:20:16;;;;;;;9.05;3.90;;;;;;;9.13;71.28;100443.87;1966830;90;29559;-62
2022/12/30 09:23:18;;;;;;;11.15;3.77;;;;;;;9.23;70.90;100447.94;1966829;90;32268;-62
2022/12/30 09:26:23;;;;;;;9.85;4.70;;;;;;;9.34;70.78;100448.83;1968589;89;34359;-62
2022/12/30 09:29:25;;;;;;;10.75;4.30;;;;;;;9.46;70.59;100450.56;1973707;88;29684;-62
2022/12/30 09:32:27;;;;;;;13.93;4.37;;;;;;;9.58;70.18;100456.27;1971824;90;27729;-62
2022/12/30 09:35:29;;;;;;;11.70;5.87;;;;;;;9.73;70.16;100453.86;1971512;90;29533;-61
2022/12/30 09:38:32;;;;;;;14.25;8.25;;;;;;;9.87;70.08;100453.23;1971469;90;32364;-62
2022/12/30 09:45:49;;;;;;;10.28;6.62;;;;;;;10.11;69.56;100451.74;1971542;90;29774;-61
2022/12/30 09:49:04;;;;;;;16.70;9.58;;;;;;;10.25;69.43;100454.66;1971964;90;27715;-64
2022/12/30 09:52:20;;;;;;;26.75;18.25;;;;;;;10.40;69.48;100457.14;1980464;88;29746;-62
2022/12/30 09:55:33;;;;;;;20.40;13.13;;;;;;;10.53;69.25;100459.23;1971585;90;31461;-61
2022/12/30 09:58:35;;;;;;;13.80;9.23;;;;;;;10.64;69.07;100464.95;1971193;90;32936;-61
2022/12/30 10:01:47;;;;;;;9.75;7.28;;;;;;;10.71;68.88;100461.50;1952049;90;31684;-61
2022/12/30 10:04:50;;;;;;;10.50;7.30;;;;;;;10.78;68.59;100462.96;1972011;90;27726;-61
2022/12/30 10:08:12;;;;;;;14.55;10.43;;;;;;;10.83;68.42;100459.59;1971787;90;29870;-61
2022/12/30 10:11:28;;;;;;;13.08;8.65;;;;;;;10.88;68.21;100460.71;1971806;90;30863;-62
2022/12/30 10:15:01;;;;;;;14.03;7.22;;;;;;;10.87;67.94;100457.63;1971560;90;33871;-61
2022/12/30 10:18:42;;;;;;;11.12;6.62;;;;;;;10.81;67.63;100461.48;1971473;90;31745;-62
2022/12/30 10:22:27;;;;;;;11.48;6.30;;;;;;;10.73;67.51;100468.55;1972021;88;27705;-62
2022/12/30 10:25:40;;;;;;;14.18;7.58;;;;;;;10.66;67.44;100467.58;1962198;89;28679;-61
2022/12/30 10:28:49;;;;;;;14.80;9.70;;;;;;;10.57;67.17;100463.52;1979064;89;31906;-61
2022/12/30 10:31:53;;;;;;;17.57;9.45;;;;;;;10.47;67.25;100457.23;1979212;89;33038;-60
2022/12/30 10:35:12;;;;;;;15.72;8.55;;;;;;;10.41;66.93;100446.83;1979196;89;30452;-60
2022/12/30 10:38:18;;;;;;;18.32;8.05;;;;;;;10.34;67.05;100450.20;1978887;89;27664;-61
2022/12/30 10:41:34;;;;;;;16.85;9.60;;;;;;;10.29;67.05;100439.31;1979196;89;29641;-59
2022/12/30 10:44:56;;;;;;;23.83;11.48;;;;;;;10.25;67.04;100434.58;1979121;89;31039;-60
2022/12/30 10:48:25;;;;;;;25.20;13.25;;;;;;;10.22;66.96;100431.17;1979302;89;33007;-63
2022/12/30 10:51:27;;;;;;;23.25;11.70;;;;;;;10.24;67.07;100430.64;1916061;92;29673;-64
2022/12/30 10:54:29;;;;;;;33.40;15.18;;;;;;;10.26;66.92;100429.63;1915213;92;27616;-64
2022/12/30 10:57:34;;;;;;;16.07;7.65;;;;;;;10.30;66.77;100426.32;1915242;92;29568;-63
2022/12/30 11:00:40;;;;;;;11.63;4.83;;;;;;;10.30;66.53;100419.63;1936848;91;32015;-63
2022/12/30 11:03:43;;;;;;;30.88;12.78;;;;;;;10.30;66.37;100419.17;1940488;91;33546;-64
2022/12/30 11:06:51;;;;;;;13.32;7.30;;;;;;;10.32;66.10;100414.62;1940485;91;29648;-64
2022/12/30 11:09:53;;;;;;;15.68;7.47;;;;;;;10.33;66.19;100417.70;1918771;91;27882;-64
2022/12/30 11:16:32;;;;;;;19.17;8.43;;;;;;;10.34;65.85;100415.88;1940457;91;32284;-64
2022/12/30 11:19:34;;;;;;;27.65;11.08;;;;;;;10.34;65.72;100415.88;1936403;91;33429;-64
2022/12/30 11:22:36;;;;;;;19.12;7.78;;;;;;;10.34;65.54;100413.20;1936960;90;30872;-64
2022/12/30 11:25:44;;;;;;;14.13;6.12;;;;;;;10.32;65.51;100407.92;1973445;88;27735;-64
2022/12/30 11:29:01;;;;;;;14.18;6.42;;;;;;;10.34;65.52;100406.50;2004982;87;28657;-64
2022/12/30 11:32:09;;;;;;;11.88;5.10;;;;;;;10.36;65.46;100399.72;2004970;87;31002;-64
2022/12/30 11:35:39;;;;;;;11.60;5.20;;;;;;;10.37;65.14;100388.06;2004991;87;33815;-64
2022/12/30 11:38:44;;;;;;;14.98;5.72;;;;;;;10.37;65.06;100388.06;2004886;87;29708;-64
2022/12/30 11:41:53;;;;;;;16.73;9.53;;;;;;;10.36;64.74;100384.54;2005167;87;27695;-63
2022/12/30 11:45:14;;;;;;;17.75;8.70;;;;;;;10.39;64.96;100390.24;2004199;88;28832;-62
2022/12/30 11:48:29;;;;;;;15.43;8.20;;;;;;;10.42;64.78;100384.75;2004569;87;30496;-63
2022/12/30 11:51:34;;;;;;;;;;;;;;;10.49;64.83;100393.75;2026439;87;34108;-64
2022/12/30 11:54:41;;;;;;;11.22;4.15;;;;;;;10.58;64.70;100383.06;2002433;88;29639;-64
2022/12/30 11:57:43;;;;;;;10.58;4.12;;;;;;;10.63;64.68;100371.66;2004604;87;28325;-64
2022/12/30 12:00:48;;;;;;;10.40;3.60;;;;;;;10.64;64.52;100371.18;2004648;87;28817;-63
2022/12/30 12:03:55;;;;;;;10.15;7.03;;;;;;;10.64;64.24;100377.88;1984421;88;31394;-63
2022/12/30 12:06:57;;;;;;;13.18;9.13;;;;;;;10.59;63.88;100374.58;2003771;87;33855;-64
2022/12/30 12:10:19;;;;;;;12.55;8.93;;;;;;;10.55;63.81;100377.85;1993385;88;30556;-66
2022/12/30 12:13:55;;;;;;;13.75;7.90;;;;;;;10.52;63.54;100373.13;1993013;87;27720;-66
2022/12/30 12:17:11;;;;;;;13.30;6.42;;;;;;;10.45;63.78;100368.05;1933978;90;29891;-65
2022/12/30 12:20:33;;;;;;;11.70;4.22;;;;;;;10.42;63.70;100364.66;1966124;89;31514;-65
2022/12/30 12:24:31;;;;;;;7.67;2.83;;;;;;;10.36;63.42;100363.11;1946894;90;33686;-63
2022/12/30 12:27:33;;;;;;;8.15;2.40;;;;;;;10.30;63.41;100356.70;1945514;91;30834;-63
2022/12/30 12:30:55;;;;;;;8.35;3.77;;;;;;;10.24;63.31;100369.06;1946146;91;27709;-64
2022/12/30 12:34:19;;;;;;;16.25;8.65;;;;;;;10.20;63.40;100377.69;1946698;90;29084;-65
2022/12/30 12:38:07;;;;;;;10.63;4.42;;;;;;;10.20;63.22;100387.05;1940430;91;31159;-66
2022/12/30 12:41:43;;;;;;;10.78;5.15;;;;;;;10.21;63.50;100381.25;1946020;90;33892;-65
2022/12/30 12:44:56;;;;;;;11.43;5.72;;;;;;;10.28;63.46;100380.88;1933939;90;29660;-67
2022/12/30 12:48:18;;;;;;;24.82;15.70;;;;;;;10.34;63.46;100369.86;1933271;90;27774;-66
2022/12/30 12:51:51;;;;;;;13.93;7.72;;;;;;;10.37;63.52;100366.64;1905449;91;29553;-67
2022/12/30 12:55:18;;;;;;;12.98;9.18;;;;;;;10.39;63.62;100365.69;1875741;93;32454;-66
2022/12/30 12:58:43;;;;;;;13.58;9.68;;;;;;;10.40;63.41;100365.20;1875528;94;33037;-65
2022/12/30 13:01:56;;;;;;;10.53;5.50;;;;;;;10.39;63.57;100364.34;1903837;92;31091;-65
2022/12/30 13:05:25;;;;;;;11.43;6.45;;;;;;;10.40;63.55;100363.41;1882412;93;27852;-66
2022/12/30 13:08:58;;;;;;;10.40;4.67;;;;;;;10.39;63.54;100363.01;1933534;90;29401;-66
2022/12/30 13:12:11;;;;;;;7.65;4.85;;;;;;;10.37;63.33;100362.17;1934100;90;31924;-66
2022/12/30 13:15:26;;;;;;;10.68;5.40;;;;;;;10.33;63.40;100358.78;1933992;92;33120;-63
2022/12/30 13:18:28;;;;;;;;;;;;;;;10.30;63.64;100354.02;1936678;90;29660;-65
2022/12/30 13:21:31;;;;;;;10.03;5.70;;;;;;;10.26;63.67;100356.47;1988274;89;27752;-65
2022/12/30 13:24:38;;;;;;;9.10;5.05;;;;;;;10.24;63.87;100361.88;1993160;88;29926;-65
2022/12/30 13:27:41;;;;;;;9.65;5.28;;;;;;;10.21;63.94;100362.51;1990356;88;31059;-79
2022/12/30 13:30:48;;;;;;;10.55;5.33;;;;;;;10.19;64.12;100362.11;1993218;88;33086;-65
2022/12/30 13:34:11;;;;;;;10.75;4.90;;;;;;;10.17;64.22;100352.42;1991987;88;29733;-63
2022/12/30 13:37:30;;;;;;;10.05;5.72;;;;;;;10.13;64.37;100349.00;1992167;88;27766;-63
2022/12/30 13:40:46;;;;;;;13.03;7.10;;;;;;;10.12;64.48;100348.59;2022035;87;28693;-62
2022/12/30 13:43:53;;;;;;;9.40;5.67;;;;;;;10.09;64.62;100350.11;2021781;87;31444;-65
2022/12/30 13:46:57;;;;;;;8.55;5.47;;;;;;;10.06;64.92;100348.91;1959110;90;32991;-66
2022/12/30 13:50:02;;;;;;;6.50;4.90;;;;;;;10.01;65.06;100351.77;1971013;90;31207;-65
2022/12/30 13:53:26;;;;;;;12.90;5.83;;;;;;;9.96;65.14;100348.46;1954423;89;27777;-65
2022/12/30 13:56:44;;;;;;;12.68;7.20;;;;;;;9.91;65.26;100353.16;1982359;89;28673;-66
2022/12/30 13:59:47;;;;;;;11.00;6.05;;;;;;;9.85;65.34;100344.05;1991857;89;31044;-66
2022/12/30 14:03:15;;;;;;;11.48;6.22;;;;;;;9.78;65.34;100345.30;1969577;89;34195;-65
2022/12/30 14:06:32;;;;;;;10.70;6.10;;;;;;;9.70;65.33;100341.14;1956895;90;31853;-65
2022/12/30 14:09:35;;;;;;;127.07;68.17;;;;;;;9.61;65.43;100350.05;1984227;89;27876;-65
2022/12/30 14:12:39;;;;;;;35.30;23.30;;;;;;;9.51;65.53;100347.80;1973748;89;29571;-65
2022/12/30 14:15:47;;;;;;;19.80;13.83;;;;;;;9.44;65.65;100350.33;1981889;89;31162;-66
2022/12/30 14:18:51;;;;;;;25.37;16.65;;;;;;;9.35;65.79;100347.59;1958925;89;58139;-66
2022/12/30 14:21:54;;;;;;;16.40;9.90;;;;;;;9.27;65.84;100351.94;1959125;90;30547;-66
2022/12/30 14:25:03;;;;;;;11.78;6.47;;;;;;;9.19;65.91;100351.42;1958517;90;27812;-65
2022/12/30 14:28:25;;;;;;;11.00;6.62;;;;;;;9.10;66.03;100351.83;1942794;90;28865;-65
2022/12/30 14:31:46;;;;;;;9.25;6.30;;;;;;;9.00;66.08;100346.45;1921326;92;31098;-65
2022/12/30 14:34:53;;;;;;;9.28;6.03;;;;;;;8.89;66.25;100354.47;1921049;92;33355;-65
2022/12/30 14:38:24;;;;;;;9.53;6.78;;;;;;;8.80;66.43;100354.83;1920904;92;29636;-64
2022/12/30 14:41:40;;;;;;;8.93;6.20;;;;;;;8.71;66.45;100361.91;1922278;91;27813;-65
2022/12/30 14:44:44;;;;;;;9.18;5.97;;;;;;;8.58;66.59;100357.52;1955055;90;29576;-65
2022/12/30 14:47:47;;;;;;;10.70;6.17;;;;;;;8.46;66.67;100358.39;1936698;91;31887;-64
2022/12/30 14:50:51;;;;;;;9.38;6.08;;;;;;;8.35;66.86;100373.98;1930441;92;32995;-65
2022/12/30 14:53:54;;;;;;;10.43;6.57;;;;;;;8.24;67.02;100373.50;1930798;91;29710;-65
2022/12/30 14:57:07;;;;;;;12.40;7.60;;;;;;;8.15;67.30;100374.73;1929117;92;27656;-64
2022/12/30 15:00:14;;;;;;;14.07;9.25;;;;;;;8.05;67.47;100383.09;1929102;92;28750;-63
2022/12/30 15:03:20;;;;;;;14.23;8.48;;;;;;;7.94;67.65;100393.31;1928646;91;32061;-64
2022/12/30 15:06:22;;;;;;;13.32;8.05;;;;;;;7.84;67.78;100383.45;1929466;92;33041;-64
2022/12/30 15:09:26;;;;;;;17.25;10.03;;;;;;;7.75;67.97;100375.77;1928984;91;30776;-64
2022/12/30 15:12:29;;;;;;;16.82;9.80;;;;;;;7.66;68.16;100372.11;1930020;91;27688;-65
2022/12/30 15:15:31;;;;;;;15.32;8.30;;;;;;;7.56;68.33;100371.09;1931976;91;29998;-65
2022/12/30 15:18:43;;;;;;;15.65;9.93;;;;;;;7.48;68.42;100373.63;1929864;92;33181;-65
2022/12/30 15:21:48;;;;;;;15.95;9.85;;;;;;;7.39;68.70;100369.05;1932033;91;32977;-65